sensor_id;sensor_type;location;lat;lon;timestamp;pressure;altitude;pressure_sealevel;temperature;humidity
64713;BME280;51140;45.340;5.980;2023-07-13T00:01:42;98264.63;;;21.58;93.28
64713;BME280;51140;45.340;5.980;2023-07-13T00:04:08;98269.94;;;21.54;93.32
64713;BME280;51140;45.340;5.980;2023-07-13T00:06:33;98265.72;;;21.45;93.28
64713;BME280;51140;45.340;5.980;2023-07-13T00:09:01;98280.06;;;21.57;94.02
64713;BME280;51140;45.340;5.980;2023-07-13T00:11:27;98272.06;;;21.07;93.80
64713;BME280;51140;45.340;5.980;2023-07-13T00:13:52;98265.81;;;21.16;94.23
64713;BME280;51140;45.340;5.980;2023-07-13T00:16:18;98264.13;;;21.02;94.52
64713;BME280;51140;45.340;5.980;2023-07-13T00:18:44;98261.25;;;21.07;94.85
64713;BME280;51140;45.340;5.980;2023-07-13T00:21:10;98259.88;;;21.43;94.58
64713;BME280;51140;45.340;5.980;2023-07-13T00:23:38;98247.09;;;21.31;93.34
64713;BME280;51140;45.340;5.980;2023-07-13T00:26:05;98260.53;;;21.40;93.49
64713;BME280;51140;45.340;5.980;2023-07-13T00:28:31;98260.50;;;20.98;94.42
64713;BME280;51140;45.340;5.980;2023-07-13T00:30:57;98262.19;;;21.12;93.92
64713;BME280;51140;45.340;5.980;2023-07-13T00:33:23;98258.69;;;21.11;93.75
64713;BME280;51140;45.340;5.980;2023-07-13T00:35:49;98263.03;;;21.24;93.94
64713;BME280;51140;45.340;5.980;2023-07-13T00:38:15;98261.25;;;21.07;93.96
64713;BME280;51140;45.340;5.980;2023-07-13T00:40:40;98267.69;;;21.15;93.57
64713;BME280;51140;45.340;5.980;2023-07-13T00:43:12;98264.47;;;20.80;93.95
64713;BME280;51140;45.340;5.980;2023-07-13T00:48:14;98252.09;;;20.50;93.60
64713;BME280;51140;45.340;5.980;2023-07-13T00:50:41;98255.88;;;20.58;92.92
64713;BME280;51140;45.340;5.980;2023-07-13T00:53:07;98258.63;;;20.49;92.85
64713;BME280;51140;45.340;5.980;2023-07-13T00:55:34;98261.41;;;20.23;93.84
64713;BME280;51140;45.340;5.980;2023-07-13T00:58:00;98263.91;;;20.37;93.18
64713;BME280;51140;45.340;5.980;2023-07-13T01:00:27;98260.44;;;20.28;92.44
64713;BME280;51140;45.340;5.980;2023-07-13T01:02:54;98258.22;;;20.30;92.75
64713;BME280;51140;45.340;5.980;2023-07-13T01:05:21;98262.00;;;20.37;92.50
64713;BME280;51140;45.340;5.980;2023-07-13T01:07:49;98262.97;;;20.24;91.55
64713;BME280;51140;45.340;5.980;2023-07-13T01:10:17;98262.88;;;20.04;91.67
64713;BME280;51140;45.340;5.980;2023-07-13T01:12:43;98266.63;;;19.65;92.75
64713;BME280;51140;45.340;5.980;2023-07-13T01:15:46;98259.66;;;19.55;93.47
64713;BME280;51140;45.340;5.980;2023-07-13T01:18:15;98262.72;;;19.45;92.97
64713;BME280;51140;45.340;5.980;2023-07-13T01:20:50;98259.38;;;19.48;93.25
64713;BME280;51140;45.340;5.980;2023-07-13T01:23:15;98253.50;;;19.37;91.97
64713;BME280;51140;45.340;5.980;2023-07-13T01:25:41;98253.50;;;19.37;92.55
64713;BME280;51140;45.340;5.980;2023-07-13T01:28:07;98258.72;;;19.00;94.00
64713;BME280;51140;45.340;5.980;2023-07-13T01:30:38;98263.94;;;18.88;94.96
64713;BME280;51140;45.340;5.980;2023-07-13T01:33:08;98255.25;;;19.08;93.95
64713;BME280;51140;45.340;5.980;2023-07-13T01:35:35;98254.28;;;19.04;92.95
64713;BME280;51140;45.340;5.980;2023-07-13T01:38:00;98252.56;;;19.25;93.13
64713;BME280;51140;45.340;5.980;2023-07-13T01:40:27;98240.31;;;19.70;88.54
64713;BME280;51140;45.340;5.980;2023-07-13T01:42:52;98255.41;;;19.63;91.10
64713;BME280;51140;45.340;5.980;2023-07-13T01:45:17;98255.25;;;19.51;91.36
64713;BME280;51140;45.340;5.980;2023-07-13T01:47:43;98253.38;;;19.42;91.54
64713;BME280;51140;45.340;5.980;2023-07-13T01:50:09;98262.84;;;19.23;92.74
64713;BME280;51140;45.340;5.980;2023-07-13T01:52:34;98264.59;;;19.27;92.55
64713;BME280;51140;45.340;5.980;2023-07-13T01:54:59;98256.03;;;19.17;92.92
64713;BME280;51140;45.340;5.980;2023-07-13T01:57:25;98258.09;;;19.11;93.20
64713;BME280;51140;45.340;5.980;2023-07-13T01:59:50;98257.13;;;18.90;93.82
64713;BME280;51140;45.340;5.980;2023-07-13T02:02:16;98252.38;;;19.13;93.04
64713;BME280;51140;45.340;5.980;2023-07-13T02:04:41;98241.47;;;19.01;93.25
64713;BME280;51140;45.340;5.980;2023-07-13T02:07:08;98248.13;;;19.03;93.14
64713;BME280;51140;45.340;5.980;2023-07-13T02:09:33;98244.47;;;18.91;92.82
64713;BME280;51140;45.340;5.980;2023-07-13T02:11:59;98245.59;;;19.07;92.61
64713;BME280;51140;45.340;5.980;2023-07-13T02:14:24;98248.75;;;18.83;93.35
64713;BME280;51140;45.340;5.980;2023-07-13T02:16:49;98244.63;;;18.85;94.23
64713;BME280;51140;45.340;5.980;2023-07-13T02:19:15;98257.28;;;18.94;92.35
64713;BME280;51140;45.340;5.980;2023-07-13T02:21:40;98252.88;;;19.06;91.26
64713;BME280;51140;45.340;5.980;2023-07-13T02:24:05;98255.69;;;18.84;91.95
64713;BME280;51140;45.340;5.980;2023-07-13T02:26:31;98250.81;;;18.95;91.27
64713;BME280;51140;45.340;5.980;2023-07-13T02:28:56;98259.19;;;19.02;92.01
64713;BME280;51140;45.340;5.980;2023-07-13T02:31:21;98253.03;;;19.18;91.27
64713;BME280;51140;45.340;5.980;2023-07-13T02:33:47;98250.50;;;18.96;92.00
64713;BME280;51140;45.340;5.980;2023-07-13T02:36:12;98262.78;;;18.54;93.75
64713;BME280;51140;45.340;5.980;2023-07-13T02:38:39;98252.56;;;19.16;92.12
64713;BME280;51140;45.340;5.980;2023-07-13T02:41:07;98263.31;;;19.25;91.96
64713;BME280;51140;45.340;5.980;2023-07-13T02:43:33;98258.91;;;19.29;90.70
64713;BME280;51140;45.340;5.980;2023-07-13T02:46:00;98264.88;;;18.83;92.10
64713;BME280;51140;45.340;5.980;2023-07-13T02:48:31;98263.94;;;19.22;91.51
64713;BME280;51140;45.340;5.980;2023-07-13T02:50:57;98272.16;;;18.82;93.22
64713;BME280;51140;45.340;5.980;2023-07-13T02:53:22;98271.38;;;18.82;93.22
64713;BME280;51140;45.340;5.980;2023-07-13T02:55:48;98270.91;;;18.80;92.45
64713;BME280;51140;45.340;5.980;2023-07-13T02:58:13;98275.03;;;18.86;93.51
64713;BME280;51140;45.340;5.980;2023-07-13T03:00:42;98271.06;;;19.01;91.79
64713;BME280;51140;45.340;5.980;2023-07-13T03:03:08;98271.06;;;18.44;93.63
64713;BME280;51140;45.340;5.980;2023-07-13T03:05:33;98278.84;;;18.46;94.69
64713;BME280;51140;45.340;5.980;2023-07-13T03:07:59;98270.72;;;18.76;93.29
64713;BME280;51140;45.340;5.980;2023-07-13T03:10:24;98276.84;;;18.60;93.88
64713;BME280;51140;45.340;5.980;2023-07-13T03:12:50;98278.25;;;18.49;94.88
64713;BME280;51140;45.340;5.980;2023-07-13T03:15:15;98272.34;;;18.86;93.06
64713;BME280;51140;45.340;5.980;2023-07-13T03:17:41;98281.69;;;18.41;94.66
64713;BME280;51140;45.340;5.980;2023-07-13T03:20:07;98288.91;;;18.32;95.55
64713;BME280;51140;45.340;5.980;2023-07-13T03:22:32;98283.00;;;18.21;95.97
64713;BME280;51140;45.340;5.980;2023-07-13T03:24:58;98289.94;;;18.13;96.68
64713;BME280;51140;45.340;5.980;2023-07-13T03:27:23;98279.66;;;18.15;96.02
64713;BME280;51140;45.340;5.980;2023-07-13T03:29:48;98293.28;;;18.19;95.79
64713;BME280;51140;45.340;5.980;2023-07-13T03:32:14;98297.56;;;18.20;96.51
64713;BME280;51140;45.340;5.980;2023-07-13T03:34:39;98294.38;;;18.18;96.64
64713;BME280;51140;45.340;5.980;2023-07-13T03:37:05;98305.22;;;18.04;96.81
64713;BME280;51140;45.340;5.980;2023-07-13T03:39:30;98293.94;;;18.24;96.64
64713;BME280;51140;45.340;5.980;2023-07-13T03:41:55;98297.38;;;18.16;96.80
64713;BME280;51140;45.340;5.980;2023-07-13T03:44:21;98302.94;;;18.20;96.43
64713;BME280;51140;45.340;5.980;2023-07-13T03:46:46;98298.22;;;18.25;95.69
64713;BME280;51140;45.340;5.980;2023-07-13T03:49:12;98309.47;;;18.36;96.56
64713;BME280;51140;45.340;5.980;2023-07-13T03:51:37;98315.22;;;18.43;96.14
64713;BME280;51140;45.340;5.980;2023-07-13T03:54:03;98302.81;;;18.73;93.37
64713;BME280;51140;45.340;5.980;2023-07-13T03:56:29;98309.25;;;18.24;95.69
64713;BME280;51140;45.340;5.980;2023-07-13T03:58:56;98310.72;;;18.30;96.32
64713;BME280;51140;45.340;5.980;2023-07-13T04:01:22;98306.47;;;18.68;93.95
64713;BME280;51140;45.340;5.980;2023-07-13T04:03:49;98305.06;;;18.79;92.13
64713;BME280;51140;45.340;5.980;2023-07-13T04:06:23;98313.59;;;18.81;92.51
64713;BME280;51140;45.340;5.980;2023-07-13T04:08:51;98318.50;;;18.40;93.73
64713;BME280;51140;45.340;5.980;2023-07-13T04:11:19;98321.75;;;18.59;94.68
64713;BME280;51140;45.340;5.980;2023-07-13T04:13:45;98317.25;;;18.85;92.96
64713;BME280;51140;45.340;5.980;2023-07-13T04:16:12;98309.84;;;19.00;91.53
64713;BME280;51140;45.340;5.980;2023-07-13T04:18:37;98317.44;;;18.89;91.52
64713;BME280;51140;45.340;5.980;2023-07-13T04:21:02;98330.75;;;19.03;91.43
64713;BME280;51140;45.340;5.980;2023-07-13T04:23:29;98320.28;;;19.10;92.07
64713;BME280;51140;45.340;5.980;2023-07-13T04:25:54;98332.31;;;19.21;91.80
64713;BME280;51140;45.340;5.980;2023-07-13T04:28:21;98337.03;;;18.90;92.46
64713;BME280;51140;45.340;5.980;2023-07-13T04:30:47;98342.13;;;19.00;92.61
64713;BME280;51140;45.340;5.980;2023-07-13T04:33:12;98341.97;;;19.05;91.80
64713;BME280;51140;45.340;5.980;2023-07-13T04:35:38;98343.81;;;18.78;93.54
64713;BME280;51140;45.340;5.980;2023-07-13T04:38:03;98354.97;;;18.55;94.28
64713;BME280;51140;45.340;5.980;2023-07-13T04:40:29;98349.28;;;18.56;93.73
64713;BME280;51140;45.340;5.980;2023-07-13T04:42:55;98351.69;;;18.75;93.51
64713;BME280;51140;45.340;5.980;2023-07-13T04:45:21;98347.59;;;18.69;93.93
64713;BME280;51140;45.340;5.980;2023-07-13T04:47:47;98348.78;;;18.54;93.91
64713;BME280;51140;45.340;5.980;2023-07-13T04:50:13;98344.75;;;18.74;94.18
64713;BME280;51140;45.340;5.980;2023-07-13T04:52:46;98366.13;;;18.88;94.01
64713;BME280;51140;45.340;5.980;2023-07-13T04:55:11;98362.34;;;18.89;94.95
64713;BME280;51140;45.340;5.980;2023-07-13T04:57:37;98370.38;;;18.71;94.37
64713;BME280;51140;45.340;5.980;2023-07-13T05:00:03;98366.59;;;18.81;95.77
64713;BME280;51140;45.340;5.980;2023-07-13T05:02:31;98364.75;;;19.07;94.11
64713;BME280;51140;45.340;5.980;2023-07-13T05:04:58;98373.31;;;19.18;93.37
64713;BME280;51140;45.340;5.980;2023-07-13T05:07:24;98369.25;;;19.20;94.11
64713;BME280;51140;45.340;5.980;2023-07-13T05:09:50;98389.31;;;19.06;93.93
64713;BME280;51140;45.340;5.980;2023-07-13T05:12:15;98383.38;;;19.43;93.89
64713;BME280;51140;45.340;5.980;2023-07-13T05:14:41;98388.28;;;19.50;91.86
64713;BME280;51140;45.340;5.980;2023-07-13T05:17:06;98385.75;;;19.79;91.15
64713;BME280;51140;45.340;5.980;2023-07-13T05:19:31;98387.47;;;19.83;91.25
64713;BME280;51140;45.340;5.980;2023-07-13T05:21:57;98393.84;;;19.70;91.88
64713;BME280;51140;45.340;5.980;2023-07-13T05:24:22;98392.56;;;19.76;91.59
64713;BME280;51140;45.340;5.980;2023-07-13T05:26:48;98399.69;;;19.72;92.28
64713;BME280;51140;45.340;5.980;2023-07-13T05:29:13;98402.53;;;20.02;90.24
64713;BME280;51140;45.340;5.980;2023-07-13T05:31:39;98405.69;;;19.95;90.90
64713;BME280;51140;45.340;5.980;2023-07-13T05:34:04;98400.94;;;20.09;90.77
64713;BME280;51140;45.340;5.980;2023-07-13T05:36:30;98399.19;;;20.05;90.21
64713;BME280;51140;45.340;5.980;2023-07-13T05:38:56;98404.28;;;20.15;89.20
64713;BME280;51140;45.340;5.980;2023-07-13T05:41:21;98409.97;;;20.05;89.88
64713;BME280;51140;45.340;5.980;2023-07-13T05:43:47;98413.31;;;19.76;90.17
64713;BME280;51140;45.340;5.980;2023-07-13T05:46:12;98426.78;;;19.84;91.28
64713;BME280;51140;45.340;5.980;2023-07-13T05:48:37;98418.03;;;20.22;91.44
64713;BME280;51140;45.340;5.980;2023-07-13T05:51:03;98424.22;;;20.22;89.47
64713;BME280;51140;45.340;5.980;2023-07-13T05:53:28;98428.38;;;20.20;90.75
64713;BME280;51140;45.340;5.980;2023-07-13T05:55:54;98433.13;;;20.23;90.94
64713;BME280;51140;45.340;5.980;2023-07-13T05:58:20;98426.78;;;20.27;90.91
64713;BME280;51140;45.340;5.980;2023-07-13T06:00:47;98434.56;;;20.20;90.83
64713;BME280;51140;45.340;5.980;2023-07-13T06:03:12;98441.84;;;20.20;91.09
64713;BME280;51140;45.340;5.980;2023-07-13T06:05:38;98436.63;;;20.32;91.07
64713;BME280;51140;45.340;5.980;2023-07-13T06:08:04;98437.56;;;20.36;90.21
64713;BME280;51140;45.340;5.980;2023-07-13T06:10:32;98439.16;;;20.37;90.68
64713;BME280;51140;45.340;5.980;2023-07-13T06:12:58;98432.47;;;20.43;89.05
64713;BME280;51140;45.340;5.980;2023-07-13T06:15:23;98444.03;;;20.43;89.20
64713;BME280;51140;45.340;5.980;2023-07-13T06:17:49;98434.16;;;20.65;89.49
64713;BME280;51140;45.340;5.980;2023-07-13T06:20:14;98447.34;;;20.66;88.16
64713;BME280;51140;45.340;5.980;2023-07-13T06:22:40;98449.91;;;20.45;88.79
64713;BME280;51140;45.340;5.980;2023-07-13T06:25:05;98453.25;;;20.42;89.51
64713;BME280;51140;45.340;5.980;2023-07-13T06:27:31;98460.03;;;20.66;89.09
64713;BME280;51140;45.340;5.980;2023-07-13T06:29:56;98461.47;;;20.54;89.71
64713;BME280;51140;45.340;5.980;2023-07-13T06:32:22;98471.16;;;20.47;89.45
64713;BME280;51140;45.340;5.980;2023-07-13T06:34:47;98476.25;;;20.40;89.04
64713;BME280;51140;45.340;5.980;2023-07-13T06:37:13;98470.97;;;20.52;88.83
64713;BME280;51140;45.340;5.980;2023-07-13T06:39:38;98474.84;;;20.34;88.53
64713;BME280;51140;45.340;5.980;2023-07-13T06:42:05;98474.97;;;20.46;87.84
64713;BME280;51140;45.340;5.980;2023-07-13T06:44:30;98468.44;;;20.55;89.19
64713;BME280;51140;45.340;5.980;2023-07-13T06:46:56;98469.81;;;20.79;88.47
64713;BME280;51140;45.340;5.980;2023-07-13T06:49:21;98469.56;;;21.09;86.83
64713;BME280;51140;45.340;5.980;2023-07-13T06:51:46;98464.00;;;21.15;86.17
64713;BME280;51140;45.340;5.980;2023-07-13T06:54:13;98463.31;;;21.18;87.51
64713;BME280;51140;45.340;5.980;2023-07-13T06:56:38;98472.69;;;21.20;85.28
64713;BME280;51140;45.340;5.980;2023-07-13T06:59:03;98468.44;;;21.10;85.64
64713;BME280;51140;45.340;5.980;2023-07-13T07:01:29;98467.38;;;21.32;83.25
64713;BME280;51140;45.340;5.980;2023-07-13T07:03:54;98473.47;;;21.50;82.32
64713;BME280;51140;45.340;5.980;2023-07-13T07:06:21;98466.72;;;21.64;79.88
64713;BME280;51140;45.340;5.980;2023-07-13T07:08:49;98470.75;;;21.79;79.71
64713;BME280;51140;45.340;5.980;2023-07-13T07:11:17;98476.13;;;21.88;79.67
64713;BME280;51140;45.340;5.980;2023-07-13T07:13:43;98475.72;;;21.48;76.38
64713;BME280;51140;45.340;5.980;2023-07-13T07:16:09;98473.91;;;21.31;77.04
64713;BME280;51140;45.340;5.980;2023-07-13T07:18:34;98473.28;;;21.34;73.84
64713;BME280;51140;45.340;5.980;2023-07-13T07:21:00;98473.34;;;21.17;75.51
64713;BME280;51140;45.340;5.980;2023-07-13T07:23:25;98473.00;;;21.19;76.64
64713;BME280;51140;45.340;5.980;2023-07-13T07:25:51;98473.56;;;21.62;75.60
64713;BME280;51140;45.340;5.980;2023-07-13T07:28:18;98484.28;;;21.21;74.85
64713;BME280;51140;45.340;5.980;2023-07-13T07:30:47;98476.34;;;21.74;79.67
64713;BME280;51140;45.340;5.980;2023-07-13T07:33:13;98482.13;;;20.97;74.72
64713;BME280;51140;45.340;5.980;2023-07-13T07:35:38;98483.41;;;20.99;75.54
64713;BME280;51140;45.340;5.980;2023-07-13T07:38:04;98482.47;;;21.33;74.99
64713;BME280;51140;45.340;5.980;2023-07-13T07:40:29;98488.59;;;21.51;80.21
64713;BME280;51140;45.340;5.980;2023-07-13T07:42:55;98491.13;;;21.47;80.04
64713;BME280;51140;45.340;5.980;2023-07-13T07:45:20;98499.25;;;21.09;77.35
64713;BME280;51140;45.340;5.980;2023-07-13T07:47:46;98498.44;;;21.47;78.18
64713;BME280;51140;45.340;5.980;2023-07-13T07:50:12;98504.22;;;21.66;79.61
64713;BME280;51140;45.340;5.980;2023-07-13T07:52:37;98487.22;;;21.65;77.11
64713;BME280;51140;45.340;5.980;2023-07-13T07:55:04;98491.63;;;21.70;76.87
64713;BME280;51140;45.340;5.980;2023-07-13T07:57:30;98490.34;;;22.17;76.22
64713;BME280;51140;45.340;5.980;2023-07-13T07:59:55;98483.94;;;23.97;67.77
64713;BME280;51140;45.340;5.980;2023-07-13T08:02:20;98487.72;;;23.68;66.86
64713;BME280;51140;45.340;5.980;2023-07-13T08:04:46;98484.81;;;23.49;71.04
64713;BME280;51140;45.340;5.980;2023-07-13T08:07:11;98482.31;;;23.19;71.62
64713;BME280;51140;45.340;5.980;2023-07-13T08:09:36;98482.84;;;23.13;73.58
64713;BME280;51140;45.340;5.980;2023-07-13T08:12:02;98491.47;;;22.70;72.34
64713;BME280;51140;45.340;5.980;2023-07-13T08:14:27;98480.13;;;22.56;68.76
64713;BME280;51140;45.340;5.980;2023-07-13T08:16:53;98486.91;;;22.29;70.90
64713;BME280;51140;45.340;5.980;2023-07-13T08:19:19;98483.16;;;22.01;77.10
64713;BME280;51140;45.340;5.980;2023-07-13T08:21:44;98493.13;;;22.09;74.54
64713;BME280;51140;45.340;5.980;2023-07-13T08:24:10;98489.81;;;22.24;78.35
64713;BME280;51140;45.340;5.980;2023-07-13T08:26:35;98485.34;;;22.28;71.95
64713;BME280;51140;45.340;5.980;2023-07-13T08:29:00;98490.22;;;22.14;76.20
64713;BME280;51140;45.340;5.980;2023-07-13T08:31:26;98486.97;;;22.20;74.99
64713;BME280;51140;45.340;5.980;2023-07-13T08:33:51;98483.03;;;22.18;74.07
64713;BME280;51140;45.340;5.980;2023-07-13T08:36:17;98480.50;;;22.34;75.30
64713;BME280;51140;45.340;5.980;2023-07-13T08:38:42;98481.25;;;22.55;74.13
64713;BME280;51140;45.340;5.980;2023-07-13T08:41:16;98475.38;;;22.73;73.83
64713;BME280;51140;45.340;5.980;2023-07-13T08:43:45;98480.31;;;22.84;69.78
64713;BME280;51140;45.340;5.980;2023-07-13T08:49:19;98486.69;;;23.12;74.08
64713;BME280;51140;45.340;5.980;2023-07-13T08:54:42;98484.22;;;23.43;66.41
64713;BME280;51140;45.340;5.980;2023-07-13T08:57:15;98485.47;;;23.70;66.29
64713;BME280;51140;45.340;5.980;2023-07-13T08:59:41;98479.78;;;22.90;64.84
64713;BME280;51140;45.340;5.980;2023-07-13T09:02:27;98474.06;;;23.28;66.92
64713;BME280;51140;45.340;5.980;2023-07-13T09:12:50;98471.16;;;25.12;59.86
64713;BME280;51140;45.340;5.980;2023-07-13T09:15:28;98474.16;;;24.47;63.23
64713;BME280;51140;45.340;5.980;2023-07-13T09:18:00;98475.13;;;24.39;65.35
64713;BME280;51140;45.340;5.980;2023-07-13T09:20:34;98479.84;;;24.42;65.70
64713;BME280;51140;45.340;5.980;2023-07-13T09:23:05;98487.13;;;24.26;64.22
64713;BME280;51140;45.340;5.980;2023-07-13T09:25:34;98478.06;;;24.34;62.36
64713;BME280;51140;45.340;5.980;2023-07-13T09:28:08;98483.88;;;24.21;60.81
64713;BME280;51140;45.340;5.980;2023-07-13T09:33:19;98486.44;;;23.77;64.17
64713;BME280;51140;45.340;5.980;2023-07-13T09:35:45;98486.59;;;24.09;62.98
64713;BME280;51140;45.340;5.980;2023-07-13T09:38:16;98479.47;;;24.28;65.95
64713;BME280;51140;45.340;5.980;2023-07-13T09:43:35;98480.03;;;24.49;68.85
64713;BME280;51140;45.340;5.980;2023-07-13T09:46:01;98482.94;;;24.29;67.25
64713;BME280;51140;45.340;5.980;2023-07-13T09:48:34;98480.31;;;24.32;65.21
64713;BME280;51140;45.340;5.980;2023-07-13T09:51:10;98486.41;;;24.41;66.27
64713;BME280;51140;45.340;5.980;2023-07-13T09:53:41;98489.59;;;24.59;64.95
64713;BME280;51140;45.340;5.980;2023-07-13T09:56:19;98491.25;;;24.64;65.55
64713;BME280;51140;45.340;5.980;2023-07-13T09:58:45;98493.97;;;24.64;66.04
64713;BME280;51140;45.340;5.980;2023-07-13T10:01:10;98495.03;;;25.02;62.81
64713;BME280;51140;45.340;5.980;2023-07-13T10:03:36;98498.84;;;24.86;63.29
64713;BME280;51140;45.340;5.980;2023-07-13T10:06:16;98498.34;;;25.12;58.89
64713;BME280;51140;45.340;5.980;2023-07-13T10:08:44;98501.56;;;24.86;61.01
64713;BME280;51140;45.340;5.980;2023-07-13T10:11:11;98509.91;;;24.93;62.36
64713;BME280;51140;45.340;5.980;2023-07-13T10:13:40;98503.47;;;25.79;65.37
64713;BME280;51140;45.340;5.980;2023-07-13T10:16:07;98498.16;;;26.40;60.58
64713;BME280;51140;45.340;5.980;2023-07-13T10:18:43;98487.53;;;25.97;54.75
64713;BME280;51140;45.340;5.980;2023-07-13T10:21:19;98495.44;;;26.40;59.15
64713;BME280;51140;45.340;5.980;2023-07-13T10:23:50;98495.91;;;25.53;56.26
64713;BME280;51140;45.340;5.980;2023-07-13T10:26:22;98498.81;;;26.14;56.45
64713;BME280;51140;45.340;5.980;2023-07-13T10:28:54;98505.44;;;26.74;55.94
64713;BME280;51140;45.340;5.980;2023-07-13T10:31:21;98506.06;;;26.45;56.24
64713;BME280;51140;45.340;5.980;2023-07-13T10:33:46;98505.44;;;25.98;61.07
64713;BME280;51140;45.340;5.980;2023-07-13T10:36:34;98550.25;;;26.04;50.22
64713;BME280;51140;45.340;5.980;2023-07-13T10:39:04;98486.53;;;26.05;55.63
64713;BME280;51140;45.340;5.980;2023-07-13T10:41:34;98451.88;;;26.40;55.62
64713;BME280;51140;45.340;5.980;2023-07-13T10:44:00;98572.81;;;26.58;48.04
64713;BME280;51140;45.340;5.980;2023-07-13T10:46:27;98497.53;;;26.28;50.10
64713;BME280;51140;45.340;5.980;2023-07-13T10:49:05;98506.25;;;26.17;54.28
64713;BME280;51140;45.340;5.980;2023-07-13T10:51:32;98542.09;;;26.04;50.48
64713;BME280;51140;45.340;5.980;2023-07-13T10:56:41;98577.84;;;26.56;47.94
64713;BME280;51140;45.340;5.980;2023-07-13T11:01:55;98604.47;;;26.12;46.56
64713;BME280;51140;45.340;5.980;2023-07-13T11:04:22;98523.03;;;25.85;48.08
64713;BME280;51140;45.340;5.980;2023-07-13T11:06:52;98445.50;;;25.94;51.05
64713;BME280;51140;45.340;5.980;2023-07-13T11:12:08;98534.38;;;25.24;47.71
64713;BME280;51140;45.340;5.980;2023-07-13T11:14:37;98474.50;;;25.36;49.90
64713;BME280;51140;45.340;5.980;2023-07-13T11:22:48;98592.16;;;26.53;44.90
64713;BME280;51140;45.340;5.980;2023-07-13T11:27:46;98337.50;;;26.14;51.61
64713;BME280;51140;45.340;5.980;2023-07-13T11:30:32;98433.72;;;26.25;49.37
64713;BME280;51140;45.340;5.980;2023-07-13T11:36:06;98373.72;;;25.99;49.58
64713;BME280;51140;45.340;5.980;2023-07-13T11:41:19;98364.75;;;26.17;51.04
64713;BME280;51140;45.340;5.980;2023-07-13T11:43:49;98514.19;;;26.64;46.69
64713;BME280;51140;45.340;5.980;2023-07-13T11:46:26;98622.50;;;26.71;43.38
64713;BME280;51140;45.340;5.980;2023-07-13T11:48:53;98589.00;;;26.70;44.40
64713;BME280;51140;45.340;5.980;2023-07-13T11:53:48;98457.06;;;26.45;47.76
64713;BME280;51140;45.340;5.980;2023-07-13T11:56:15;98350.97;;;26.98;51.19
64713;BME280;51140;45.340;5.980;2023-07-13T11:58:41;98541.13;;;26.89;44.13
64713;BME280;51140;45.340;5.980;2023-07-13T12:01:17;98235.81;;;26.74;53.22
64713;BME280;51140;45.340;5.980;2023-07-13T12:03:44;98545.59;;;26.58;42.58
64713;BME280;51140;45.340;5.980;2023-07-13T12:06:29;98427.44;;;26.86;46.34
64713;BME280;51140;45.340;5.980;2023-07-13T12:09:08;98383.06;;;26.62;47.13
64713;BME280;51140;45.340;5.980;2023-07-13T12:11:39;98527.81;;;26.64;43.20
64713;BME280;51140;45.340;5.980;2023-07-13T12:14:05;98196.53;;;27.02;51.97
64713;BME280;51140;45.340;5.980;2023-07-13T12:16:32;98432.84;;;27.05;46.92
64713;BME280;51140;45.340;5.980;2023-07-13T12:18:59;98366.53;;;26.97;48.55
64713;BME280;51140;45.340;5.980;2023-07-13T12:21:37;98558.69;;;26.91;42.46
64713;BME280;51140;45.340;5.980;2023-07-13T12:24:04;98607.97;;;26.83;41.74
64713;BME280;51140;45.340;5.980;2023-07-13T12:26:31;98544.00;;;26.77;46.22
64713;BME280;51140;45.340;5.980;2023-07-13T12:28:59;98619.78;;;26.71;41.30
64713;BME280;51140;45.340;5.980;2023-07-13T12:34:06;98453.53;;;26.87;44.63
64713;BME280;51140;45.340;5.980;2023-07-13T12:36:37;98556.41;;;26.93;41.03
64713;BME280;51140;45.340;5.980;2023-07-13T12:39:11;98654.09;;;26.76;39.59
64713;BME280;51140;45.340;5.980;2023-07-13T12:41:38;98385.56;;;26.94;47.67
64713;BME280;51140;45.340;5.980;2023-07-13T12:44:07;98636.44;;;26.85;38.42
64713;BME280;51140;45.340;5.980;2023-07-13T12:46:34;98596.97;;;26.98;39.58
64713;BME280;51140;45.340;5.980;2023-07-13T12:48:59;98295.84;;;27.38;47.42
64713;BME280;51140;45.340;5.980;2023-07-13T12:51:26;98359.16;;;27.24;46.65
64713;BME280;51140;45.340;5.980;2023-07-13T12:54:17;98439.28;;;27.42;42.43
64713;BME280;51140;45.340;5.980;2023-07-13T12:56:44;98440.13;;;27.23;44.41
64713;BME280;51140;45.340;5.980;2023-07-13T12:59:17;98490.84;;;27.28;41.07
64713;BME280;51140;45.340;5.980;2023-07-13T13:01:43;98441.03;;;27.31;44.30
64713;BME280;51140;45.340;5.980;2023-07-13T13:04:09;98508.44;;;27.57;41.61
64713;BME280;51140;45.340;5.980;2023-07-13T13:06:36;98393.91;;;27.31;45.21
64713;BME280;51140;45.340;5.980;2023-07-13T13:09:02;98480.81;;;27.36;40.97
64713;BME280;51140;45.340;5.980;2023-07-13T13:11:31;98679.72;;;27.09;36.44
64713;BME280;51140;45.340;5.980;2023-07-13T13:13:57;98710.78;;;27.05;36.39
64713;BME280;51140;45.340;5.980;2023-07-13T13:18:53;98701.78;;;27.23;36.29
64713;BME280;51140;45.340;5.980;2023-07-13T13:21:19;98563.53;;;27.43;39.38
64713;BME280;51140;45.340;5.980;2023-07-13T13:23:45;98646.81;;;26.99;38.78
64713;BME280;51140;45.340;5.980;2023-07-13T13:26:15;98549.69;;;27.10;39.66
64713;BME280;51140;45.340;5.980;2023-07-13T13:28:43;98660.13;;;27.04;37.52
64713;BME280;51140;45.340;5.980;2023-07-13T13:31:11;98547.94;;;27.21;39.36
64713;BME280;51140;45.340;5.980;2023-07-13T13:33:39;98549.03;;;27.39;39.18
64713;BME280;51140;45.340;5.980;2023-07-13T13:36:17;98431.81;;;27.39;45.24
64713;BME280;51140;45.340;5.980;2023-07-13T13:38:44;98565.09;;;27.44;41.77
64713;BME280;51140;45.340;5.980;2023-07-13T13:41:11;98611.09;;;27.46;38.88
64713;BME280;51140;45.340;5.980;2023-07-13T13:43:39;98539.59;;;27.33;40.94
64713;BME280;51140;45.340;5.980;2023-07-13T13:46:19;98567.66;;;27.56;37.60
64713;BME280;51140;45.340;5.980;2023-07-13T13:48:46;98619.03;;;27.54;37.88
64713;BME280;51140;45.340;5.980;2023-07-13T13:51:30;98445.91;;;27.71;43.19
64713;BME280;51140;45.340;5.980;2023-07-13T13:53:56;98472.19;;;27.82;43.27